createdAt,value
2022-08-07T00:02:44.318Z,1.80
2022-08-07T00:06:52.521Z,2.00
2022-08-07T00:11:00.190Z,1.90
2022-08-07T00:15:09.304Z,2.00
2022-08-07T00:19:21.585Z,1.90
2022-08-07T00:23:36.846Z,1.90
2022-08-07T00:27:52.411Z,2.00
2022-08-07T00:32:03.691Z,1.80
2022-08-07T00:36:14.173Z,2.00
2022-08-07T00:40:36.265Z,1.70
2022-08-07T00:44:48.015Z,2.20
2022-08-07T00:48:55.611Z,2.00
2022-08-07T00:53:03.526Z,2.30
2022-08-07T00:57:19.093Z,2.20
2022-08-07T01:01:26.690Z,1.90
2022-08-07T01:05:36.586Z,2.00
2022-08-07T01:10:06.945Z,2.00
2022-08-07T01:14:16.597Z,1.90
2022-08-07T01:18:24.790Z,2.30
2022-08-07T01:22:33.193Z,2.10
2022-08-07T01:26:41.056Z,2.00
2022-08-07T01:30:51.384Z,2.00
2022-08-07T01:35:00.261Z,2.00
2022-08-07T01:39:10.256Z,2.30
2022-08-07T01:43:17.983Z,2.30
2022-08-07T01:48:18.623Z,2.00
2022-08-07T01:52:04.144Z,2.50
2022-08-07T01:56:16.104Z,2.20
2022-08-07T02:00:28.984Z,2.20
2022-08-07T02:04:56.377Z,2.40
2022-08-07T02:09:09.230Z,2.50
2022-08-07T02:13:19.531Z,2.40
2022-08-07T02:17:36.092Z,2.30
2022-08-07T02:21:55.802Z,2.10
2022-08-07T02:26:30.835Z,2.50
2022-08-07T02:30:34.015Z,2.90
2022-08-07T02:34:51.094Z,2.60
2022-08-07T02:39:00.266Z,2.40
2022-08-07T02:43:08.486Z,2.20
2022-08-07T02:47:19.447Z,2.50
2022-08-07T02:51:41.959Z,2.30
2022-08-07T02:56:03.933Z,2.50
2022-08-07T03:00:15.735Z,2.20
2022-08-07T03:04:26.857Z,2.30
2022-08-07T03:08:34.462Z,2.00
2022-08-07T03:12:44.221Z,2.50
2022-08-07T03:16:54.326Z,2.20
2022-08-07T03:21:02.382Z,2.30
2022-08-07T03:25:12.454Z,2.20
2022-08-07T03:29:24.324Z,2.20
2022-08-07T03:33:40.185Z,2.10
2022-08-07T03:37:53.803Z,2.30
2022-08-07T03:42:02.075Z,2.40
2022-08-07T03:46:18.569Z,2.10
2022-08-07T03:50:28.731Z,2.30
2022-08-07T03:54:54.835Z,2.30
2022-08-07T03:59:09.418Z,2.50
2022-08-07T04:03:20.099Z,2.40
2022-08-07T04:07:41.679Z,2.60
2022-08-07T04:12:24.441Z,3.10
2022-08-07T04:16:19.893Z,2.70
2022-08-07T04:20:39.370Z,3.10
2022-08-07T04:25:03.090Z,2.40
2022-08-07T04:29:16.346Z,2.40
2022-08-07T04:33:24.148Z,2.90
2022-08-07T04:38:00.786Z,2.90
2022-08-07T04:42:05.289Z,2.50
2022-08-07T04:46:20.078Z,2.50
2022-08-07T04:50:39.261Z,2.30
2022-08-07T04:54:58.233Z,2.50
2022-08-07T05:00:08.023Z,2.60
2022-08-07T05:04:00.283Z,2.70
2022-08-07T05:08:20.237Z,2.50
2022-08-07T05:12:54.402Z,2.60
2022-08-07T05:17:05.903Z,2.60
2022-08-07T05:22:00.564Z,3.00
2022-08-07T05:26:10.709Z,2.50
2022-08-07T05:30:32.695Z,2.60
2022-08-07T05:34:43.422Z,2.70
2022-08-07T05:39:01.418Z,2.10
2022-08-07T05:43:17.160Z,2.80
2022-08-07T05:47:38.483Z,2.60
2022-08-07T05:51:54.145Z,2.30
2022-08-07T05:56:05.916Z,2.20
2022-08-07T06:00:16.074Z,1.90
2022-08-07T06:04:29.827Z,1.70
2022-08-07T06:08:42.426Z,2.00
2022-08-07T06:12:52.077Z,1.80
2022-08-07T06:16:59.795Z,1.70
2022-08-07T06:22:14.292Z,1.40
2022-08-07T06:25:38.441Z,1.90
2022-08-07T06:29:47.176Z,1.50
2022-08-07T06:33:58.598Z,2.10
2022-08-07T06:38:06.419Z,2.20
2022-08-07T06:42:34.776Z,2.40
2022-08-07T06:46:43.421Z,1.70
2022-08-07T06:51:08.149Z,1.70
2022-08-07T06:55:33.046Z,1.50
2022-08-07T07:00:14.271Z,1.70
2022-08-07T07:04:27.578Z,1.70
2022-08-07T07:08:46.816Z,1.40
2022-08-07T07:12:57.532Z,1.70
2022-08-07T07:17:08.243Z,1.80
2022-08-07T07:21:27.169Z,1.70
2022-08-07T07:26:35.283Z,1.70
2022-08-07T07:30:26.596Z,1.50
2022-08-07T07:34:43.061Z,1.50
2022-08-07T07:38:51.817Z,1.50
2022-08-07T07:43:11.579Z,1.50
2022-08-07T07:47:23.995Z,1.30
2022-08-07T07:51:32.325Z,1.40
2022-08-07T07:56:01.515Z,1.50
2022-08-07T08:00:11.570Z,1.50
2022-08-07T08:04:27.460Z,1.20
2022-08-07T08:08:39.425Z,1.40
2022-08-07T08:12:52.676Z,1.40
2022-08-07T08:17:56.737Z,1.50
2022-08-07T08:22:03.393Z,1.40
2022-08-07T08:26:30.509Z,1.30
2022-08-07T08:30:42.596Z,1.30
2022-08-07T08:35:00.682Z,1.30
2022-08-07T08:39:09.110Z,1.30
2022-08-07T08:43:22.114Z,1.40
2022-08-07T08:47:57.569Z,1.20
2022-08-07T08:52:14.176Z,1.30
2022-08-07T08:56:28.061Z,1.20
2022-08-07T09:00:42.654Z,1.60
2022-08-07T09:05:02.322Z,1.20
2022-08-07T09:09:30.255Z,1.40
2022-08-07T09:13:49.338Z,1.10
2022-08-07T09:18:16.926Z,1.20
2022-08-07T09:24:32.198Z,1.20
2022-08-07T09:27:24.878Z,1.20
2022-08-07T09:31:48.459Z,1.50
2022-08-07T09:36:03.838Z,0.90
2022-08-07T09:40:22.294Z,1.10
2022-08-07T09:47:19.957Z,1.20
2022-08-07T09:50:02.605Z,1.20
2022-08-07T09:54:02.041Z,1.00
2022-08-07T09:58:32.279Z,1.30
2022-08-07T10:04:06.927Z,1.20
2022-08-07T10:07:53.562Z,1.30
2022-08-07T10:12:21.812Z,1.10
2022-08-07T10:16:45.139Z,1.20
2022-08-07T10:21:19.513Z,1.20
2022-08-07T10:25:45.696Z,1.20
2022-08-07T10:30:12.068Z,1.30
2022-08-07T10:34:32.681Z,1.20
2022-08-07T10:38:51.897Z,1.30
2022-08-07T10:43:07.402Z,1.20
2022-08-07T10:47:26.959Z,1.30
2022-08-07T10:52:13.426Z,1.20
2022-08-07T10:56:32.493Z,1.20
2022-08-07T11:00:50.259Z,1.40
2022-08-07T11:05:13.491Z,1.50
2022-08-07T11:10:10.185Z,1.40
2022-08-07T11:14:57.126Z,1.20
2022-08-07T11:18:31.104Z,1.40
2022-08-07T11:22:46.310Z,1.20
2022-08-07T11:26:57.358Z,1.20
2022-08-07T11:31:12.286Z,1.20
2022-08-07T11:35:25.051Z,1.70
2022-08-07T11:40:00.006Z,1.20
2022-08-07T11:44:18.606Z,1.20
2022-08-07T11:48:38.148Z,1.20
2022-08-07T11:52:57.710Z,1.30
2022-08-07T11:57:15.926Z,1.20
2022-08-07T12:01:58.805Z,1.20
2022-08-07T12:06:37.482Z,1.10
2022-08-07T12:11:08.347Z,1.30
2022-08-07T12:15:46.247Z,1.40
2022-08-07T12:20:04.138Z,1.40
2022-08-07T12:24:38.537Z,1.40
2022-08-07T12:28:53.840Z,1.20
2022-08-07T12:33:18.624Z,1.30
2022-08-07T12:37:28.459Z,1.20
2022-08-07T12:41:56.747Z,1.40
2022-08-07T12:46:32.321Z,1.40
2022-08-07T12:50:49.599Z,1.20
2022-08-07T12:55:05.085Z,1.00
2022-08-07T12:59:20.575Z,1.40
2022-08-07T13:04:05.224Z,1.20
2022-08-07T13:08:38.769Z,1.40
2022-08-07T13:13:04.338Z,1.20
2022-08-07T13:17:18.372Z,1.40
2022-08-07T13:21:51.178Z,1.20
2022-08-07T13:26:03.669Z,1.30
2022-08-07T13:30:19.517Z,1.30
2022-08-07T13:34:48.611Z,1.40
2022-08-07T13:39:12.976Z,1.50
2022-08-07T13:43:34.240Z,1.00
2022-08-07T13:48:05.355Z,1.40
2022-08-07T13:52:30.551Z,1.40
2022-08-07T13:56:52.081Z,1.30
2022-08-07T14:01:12.894Z,1.30
2022-08-07T14:05:25.362Z,1.30
2022-08-07T14:10:01.361Z,1.40
2022-08-07T14:14:16.335Z,1.40
2022-08-07T14:18:29.336Z,1.40
2022-08-07T14:22:38.542Z,1.40
2022-08-07T14:26:51.324Z,1.40
2022-08-07T14:30:59.982Z,1.60
2022-08-07T14:35:11.548Z,1.40
2022-08-07T14:40:15.985Z,1.20
2022-08-07T14:43:57.180Z,1.30
2022-08-07T14:48:10.575Z,1.40
2022-08-07T14:52:28.994Z,1.30
2022-08-07T14:56:42.576Z,1.50
2022-08-07T15:00:53.603Z,1.40
2022-08-07T15:05:02.055Z,1.40
2022-08-07T15:13:43.027Z,1.30
2022-08-07T15:17:58.921Z,1.30
2022-08-07T15:22:23.275Z,1.40
2022-08-07T15:26:42.699Z,1.20
2022-08-07T15:30:59.572Z,1.20
2022-08-07T15:35:18.385Z,1.30
2022-08-07T15:39:59.186Z,1.50
2022-08-07T15:44:10.939Z,1.20
2022-08-07T15:52:52.832Z,1.50
2022-08-07T15:57:39.365Z,1.30
2022-08-07T16:01:45.041Z,1.20
2022-08-07T16:06:10.725Z,1.40
2022-08-07T16:10:20.636Z,1.20
2022-08-07T16:14:42.344Z,1.20
2022-08-07T16:19:09.671Z,1.20
2022-08-07T16:23:53.562Z,1.20
2022-08-07T16:28:01.596Z,1.20
2022-08-07T16:32:33.126Z,1.20
2022-08-07T16:37:02.886Z,1.30
2022-08-07T16:41:48.632Z,1.30
2022-08-07T16:47:07.860Z,1.40
2022-08-07T16:51:13.432Z,1.30
2022-08-07T16:55:47.752Z,1.20
2022-08-07T17:00:06.946Z,1.30
2022-08-07T17:04:24.365Z,1.10
2022-08-07T17:09:09.767Z,1.10
2022-08-07T17:14:18.570Z,1.20
2022-08-07T17:18:18.645Z,1.20
2022-08-07T17:22:37.770Z,1.30
2022-08-07T17:26:51.796Z,1.80
2022-08-07T17:31:16.387Z,1.50
2022-08-07T17:35:51.268Z,1.20
2022-08-07T17:40:03.386Z,1.20
2022-08-07T17:44:33.678Z,1.10
2022-08-07T17:49:09.239Z,1.00
2022-08-07T17:54:01.609Z,1.10
2022-08-07T17:58:02.010Z,1.20
2022-08-07T18:02:16.466Z,1.30
2022-08-07T18:06:38.197Z,1.20
2022-08-07T18:12:07.797Z,1.40
2022-08-07T18:15:32.657Z,1.30
2022-08-07T18:21:07.142Z,1.50
2022-08-07T18:24:33.909Z,1.60
2022-08-07T18:28:58.646Z,1.80
2022-08-07T18:33:39.254Z,1.90
2022-08-07T18:38:55.821Z,1.70
2022-08-07T18:43:05.723Z,1.20
2022-08-07T18:47:22.589Z,1.50
2022-08-07T18:52:35.545Z,1.40
2022-08-07T18:56:15.477Z,1.60
2022-08-07T19:00:33.290Z,1.90
2022-08-07T19:04:54.802Z,1.70
2022-08-07T19:09:57.217Z,1.90
2022-08-07T19:13:56.068Z,1.80
2022-08-07T19:18:34.421Z,1.60
2022-08-07T19:22:48.439Z,1.80
2022-08-07T19:29:02.923Z,1.80
2022-08-07T19:31:58.678Z,1.40
2022-08-07T19:36:00.191Z,1.40
2022-08-07T19:40:11.353Z,1.60
2022-08-07T19:44:31.487Z,1.40
2022-08-07T19:48:42.807Z,1.60
2022-08-07T19:52:59.016Z,1.80
2022-08-07T19:58:02.494Z,1.60
2022-08-07T20:01:52.750Z,1.70
2022-08-07T20:06:04.797Z,1.40
2022-08-07T20:10:37.371Z,1.60
2022-08-07T20:14:53.618Z,1.60
2022-08-07T20:19:05.118Z,1.50
2022-08-07T20:23:33.045Z,1.50
2022-08-07T20:27:46.334Z,1.60
2022-08-07T20:31:56.815Z,1.50
2022-08-07T20:36:07.957Z,1.50
2022-08-07T20:40:32.143Z,1.70
2022-08-07T20:44:45.420Z,1.70
2022-08-07T20:49:59.231Z,1.60
2022-08-07T20:54:02.881Z,1.40
2022-08-07T20:58:02.864Z,1.50
2022-08-07T21:07:04.345Z,1.60
2022-08-07T21:11:25.686Z,1.70
2022-08-07T21:16:00.415Z,1.60
2022-08-07T21:20:26.492Z,1.60
2022-08-07T21:24:48.068Z,1.70
2022-08-07T21:28:59.430Z,1.70
2022-08-07T21:33:12.660Z,1.70
2022-08-07T21:37:25.658Z,1.70
2022-08-07T21:41:52.385Z,1.70
2022-08-07T21:46:24.350Z,1.90
2022-08-07T21:50:45.291Z,1.60
2022-08-07T21:55:00.252Z,1.80
2022-08-07T21:59:11.600Z,1.60
2022-08-07T22:03:31.644Z,1.70
2022-08-07T22:07:58.151Z,1.90
2022-08-07T22:12:12.861Z,1.80
2022-08-07T22:16:45.002Z,1.90
2022-08-07T22:21:11.839Z,1.60
2022-08-07T22:25:26.579Z,1.70
2022-08-07T22:29:48.188Z,1.60
2022-08-07T22:34:13.318Z,1.80
2022-08-07T22:38:27.175Z,1.80
2022-08-07T22:42:36.385Z,1.90
2022-08-07T22:47:08.654Z,1.80
2022-08-07T22:51:49.296Z,1.70
2022-08-07T22:56:03.965Z,1.90
2022-08-07T23:00:18.653Z,1.70
2022-08-07T23:04:58.111Z,1.90
2022-08-07T23:10:00.868Z,1.90
2022-08-07T23:14:16.045Z,1.80
2022-08-07T23:18:42.127Z,2.00
2022-08-07T23:23:03.357Z,1.90
2022-08-07T23:28:20.628Z,2.10
2022-08-07T23:34:23.753Z,2.00
2022-08-07T23:37:19.986Z,2.10
2022-08-07T23:41:33.674Z,1.70
2022-08-07T23:46:03.526Z,1.70
2022-08-07T23:50:30.668Z,1.90
2022-08-07T23:54:52.886Z,2.10
